Time;durP1;ratioP1;P1;durP2;ratioP2;P2;SDS_P1;SDS_P2;PMS_P1;PMS_P2;Temp;Humidity;BMP_temperature;BMP_pressure;BME280_temperature;BME280_humidity;BME280_pressure;Samples;Min_cycle;Max_cycle;Signal;HPM_P1;HPM_P2
2022/01/11 00:01:42;;;;;;;24.77;9.18;;;2.90;99.90;;;;;;5050951;28;20037;-75
2022/01/11 00:04:08;;;;;;;21.63;9.38;;;3.00;99.90;;;;;;5047819;28;20104;-74
2022/01/11 00:06:45;;;;;;;24.20;8.55;;;3.00;99.90;;;;;;5029768;28;20025;-76
2022/01/11 00:09:33;;;;;;;25.55;8.32;;;3.00;99.90;;;;;;5047709;28;20021;-75
2022/01/11 00:11:59;;;;;;;17.20;8.48;;;3.00;99.90;;;;;;5047376;28;20028;-74
2022/01/11 00:14:25;;;;;;;26.08;10.63;;;3.00;99.90;;;;;;5046601;28;20026;-74
2022/01/11 00:16:50;;;;;;;23.83;10.93;;;3.00;99.90;;;;;;5045471;28;20055;-75
2022/01/11 00:19:16;;;;;;;30.27;10.95;;;3.00;99.90;;;;;;5046439;28;20049;-74
2022/01/11 00:21:47;;;;;;;33.70;11.55;;;3.00;99.90;;;;;;5046817;28;20026;-75
2022/01/11 00:27:08;;;;;;;23.92;10.73;;;3.00;99.90;;;;;;5047192;28;20064;-74
2022/01/11 00:29:40;;;;;;;19.33;9.27;;;3.00;99.90;;;;;;5029650;28;20374;-75
2022/01/11 00:32:13;;;;;;;27.95;10.77;;;3.00;99.90;;;;;;5047013;28;20048;-77
2022/01/11 00:34:50;;;;;;;28.70;9.68;;;3.00;99.90;;;;;;5047459;28;20025;-75
2022/01/11 00:37:20;;;;;;;20.92;9.07;;;3.00;99.90;;;;;;5046980;28;20026;-74
2022/01/11 00:39:46;;;;;;;31.67;11.05;;;3.00;99.90;;;;;;5028967;28;20029;-74
2022/01/11 00:42:14;;;;;;;27.00;11.98;;;3.00;99.90;;;;;;5047136;28;20025;-75
2022/01/11 00:44:41;;;;;;;26.45;12.40;;;3.00;99.90;;;;;;5029024;28;20021;-75
2022/01/11 00:47:06;;;;;;;31.70;11.18;;;3.00;99.90;;;;;;5046445;28;20046;-75
2022/01/11 00:49:34;;;;;;;30.40;10.80;;;2.90;99.90;;;;;;5045374;28;20025;-73
2022/01/11 00:51:59;;;;;;;27.83;11.63;;;3.00;99.90;;;;;;5046361;28;20037;-74
2022/01/11 00:54:25;;;;;;;64.05;14.52;;;3.00;99.90;;;;;;5046803;28;20030;-75
2022/01/11 00:56:51;;;;;;;26.50;10.38;;;2.90;99.90;;;;;;5046558;28;20085;-73
2022/01/11 00:59:16;;;;;;;28.92;10.88;;;2.90;99.90;;;;;;5046298;28;20025;-74
2022/01/11 01:01:42;;;;;;;30.10;12.10;;;2.90;99.90;;;;;;5029011;28;20388;-74
2022/01/11 01:04:08;;;;;;;58.03;12.13;;;2.90;99.90;;;;;;5045442;28;20026;-74
2022/01/11 01:06:35;;;;;;;26.50;10.10;;;2.90;99.90;;;;;;5046303;28;20073;-74
2022/01/11 01:09:00;;;;;;;58.80;13.30;;;2.90;99.90;;;;;;5028828;28;20056;-74
2022/01/11 01:11:26;;;;;;;35.53;12.40;;;2.80;99.90;;;;;;5046261;28;20030;-75
2022/01/11 01:13:55;;;;;;;24.45;10.63;;;2.70;99.90;;;;;;5046000;28;20025;-75
2022/01/11 01:16:22;;;;;;;28.27;11.07;;;2.70;99.90;;;;;;5046497;28;20021;-74
2022/01/11 01:18:47;;;;;;;47.50;10.30;;;2.70;99.90;;;;;;5028173;28;20053;-74
2022/01/11 01:21:13;;;;;;;43.83;11.18;;;2.70;99.90;;;;;;5044506;28;20076;-75
2022/01/11 01:23:38;;;;;;;70.57;12.07;;;2.70;99.90;;;;;;5046416;28;20027;-75
2022/01/11 01:26:05;;;;;;;28.90;11.30;;;2.60;99.90;;;;;;5046264;28;20046;-76
2022/01/11 01:28:31;;;;;;;73.47;13.27;;;2.60;99.90;;;;;;5028498;28;20026;-75
2022/01/11 01:31:01;;;;;;;59.08;12.95;;;2.60;99.90;;;;;;5045996;28;20025;-75
2022/01/11 01:33:28;;;;;;;59.28;11.85;;;2.60;99.90;;;;;;5044225;28;20030;-73
2022/01/11 01:36:00;;;;;;;130.50;13.18;;;2.40;99.90;;;;;;5045705;28;20145;-74
2022/01/11 01:38:27;;;;;;;67.60;12.15;;;2.40;99.90;;;;;;5028298;28;20029;-74
2022/01/11 01:40:59;;;;;;;91.72;15.20;;;2.40;99.90;;;;;;5045521;28;20030;-74
2022/01/11 01:43:25;;;;;;;43.95;11.80;;;2.50;99.90;;;;;;5045820;28;20017;-73
2022/01/11 01:45:51;;;;;;;33.92;10.25;;;2.40;99.90;;;;;;5027929;28;20029;-75
2022/01/11 01:48:17;;;;;;;47.33;12.15;;;2.50;99.90;;;;;;5027544;28;20025;-76
2022/01/11 01:50:44;;;;;;;24.75;10.38;;;2.40;99.90;;;;;;5045676;28;20051;-77
2022/01/11 01:53:12;;;;;;;80.70;14.70;;;2.40;99.90;;;;;;5045731;28;20089;-75
2022/01/11 01:55:41;;;;;;;100.30;14.50;;;2.40;99.90;;;;;;5045378;28;20041;-75
2022/01/11 01:58:07;;;;;;;27.33;11.30;;;2.40;99.90;;;;;;5045954;28;20035;-75
2022/01/11 02:00:40;;;;;;;54.28;13.13;;;2.40;99.90;;;;;;5045717;28;20021;-75
2022/01/11 02:03:12;;;;;;;52.38;10.13;;;2.30;99.90;;;;;;5045350;28;20085;-75
2022/01/11 02:05:39;;;;;;;119.35;15.52;;;2.30;99.90;;;;;;5046079;28;20030;-76
2022/01/11 02:08:07;;;;;;;49.53;13.60;;;2.30;99.90;;;;;;5045783;28;20128;-74
2022/01/11 02:10:35;;;;;;;64.18;14.07;;;2.30;99.90;;;;;;5044748;28;20035;-74
2022/01/11 02:13:00;;;;;;;58.58;13.15;;;2.30;99.90;;;;;;5045385;28;20384;-75
2022/01/11 02:15:27;;;;;;;61.03;16.00;;;2.30;99.90;;;;;;5027539;28;20497;-74
2022/01/11 02:17:52;;;;;;;48.88;13.57;;;2.20;99.90;;;;;;5044668;28;20084;-75
2022/01/11 02:20:18;;;;;;;48.78;13.65;;;2.20;99.90;;;;;;5045015;28;20053;-74
2022/01/11 02:22:44;;;;;;;27.17;10.77;;;2.20;99.90;;;;;;5044838;28;20032;-74
2022/01/11 02:25:10;;;;;;;87.30;10.85;;;2.20;99.90;;;;;;5027157;28;20035;-75
2022/01/11 02:27:36;;;;;;;29.67;10.07;;;2.10;99.90;;;;;;5027317;28;20042;-75
2022/01/11 02:30:04;;;;;;;33.08;10.32;;;2.10;99.90;;;;;;5044756;28;20029;-75
2022/01/11 02:32:30;;;;;;;58.35;12.60;;;2.20;99.90;;;;;;5044785;28;20095;-75
2022/01/11 02:34:55;;;;;;;54.10;11.48;;;2.20;99.90;;;;;;5027263;28;20485;-75
2022/01/11 02:37:21;;;;;;;22.95;8.93;;;2.20;99.90;;;;;;5044540;28;20026;-74
2022/01/11 02:39:46;;;;;;;61.47;7.90;;;2.20;99.90;;;;;;5026819;28;20034;-75
2022/01/11 02:42:12;;;;;;;84.57;11.30;;;2.10;99.90;;;;;;5043943;28;20072;-73
2022/01/11 02:44:38;;;;;;;28.13;9.38;;;2.10;99.90;;;;;;5044277;28;20029;-76
2022/01/11 02:47:06;;;;;;;58.90;10.93;;;2.00;99.90;;;;;;5044594;28;20478;-74
2022/01/11 02:49:31;;;;;;;49.67;11.57;;;2.00;99.90;;;;;;5044942;28;20036;-74
2022/01/11 02:51:57;;;;;;;28.08;9.30;;;1.90;99.90;;;;;;5044014;28;20049;-75
2022/01/11 02:54:23;;;;;;;27.33;8.82;;;1.90;99.90;;;;;;5044725;28;20030;-75
2022/01/11 02:56:50;;;;;;;32.35;11.20;;;1.90;99.90;;;;;;5044410;28;20025;-74
2022/01/11 02:59:16;;;;;;;66.25;11.48;;;1.90;99.90;;;;;;5044473;28;20025;-74
2022/01/11 03:01:41;;;;;;;42.70;10.13;;;1.90;99.90;;;;;;5044610;28;20041;-74
2022/01/11 03:04:07;;;;;;;79.25;13.85;;;1.80;99.90;;;;;;5044710;28;20026;-73
2022/01/11 03:06:33;;;;;;;63.35;10.95;;;1.80;99.90;;;;;;5043997;28;20385;-74
2022/01/11 03:08:58;;;;;;;64.90;12.88;;;1.80;99.90;;;;;;5026838;28;21103;-74
2022/01/11 03:11:25;;;;;;;66.05;12.10;;;1.80;99.90;;;;;;5043723;28;20523;-75
2022/01/11 03:13:50;;;;;;;43.47;11.25;;;1.80;99.90;;;;;;5026679;28;20393;-74
2022/01/11 03:16:17;;;;;;;96.45;13.77;;;1.80;99.90;;;;;;5044658;28;20037;-74
2022/01/11 03:18:44;;;;;;;82.47;15.85;;;1.80;99.90;;;;;;5043972;28;20069;-75
2022/01/11 03:21:11;;;;;;;53.08;11.95;;;1.70;99.90;;;;;;5044031;28;20046;-75
2022/01/11 03:23:38;;;;;;;101.43;13.82;;;1.70;99.90;;;;;;5044818;28;20060;-75
2022/01/11 03:26:03;;;;;;;134.60;15.63;;;1.70;99.90;;;;;;5044030;28;20109;-75
2022/01/11 03:28:30;;;;;;;56.22;13.32;;;1.70;99.90;;;;;;5026804;28;20041;-76
2022/01/11 03:30:56;;;;;;;39.63;10.80;;;1.70;99.90;;;;;;5044047;28;20041;-74
2022/01/11 03:33:22;;;;;;;29.13;10.85;;;1.70;99.90;;;;;;5043813;28;20025;-74
2022/01/11 03:35:49;;;;;;;61.15;12.77;;;1.70;99.90;;;;;;5026519;28;20045;-75
2022/01/11 03:38:16;;;;;;;56.95;11.82;;;1.70;99.90;;;;;;5044163;28;20092;-75
2022/01/11 03:40:42;;;;;;;79.70;15.40;;;1.70;99.90;;;;;;5043752;28;20032;-75
2022/01/11 03:43:08;;;;;;;50.65;11.75;;;1.70;99.90;;;;;;5044213;28;20108;-76
2022/01/11 03:45:36;;;;;;;44.85;10.98;;;1.60;99.90;;;;;;5044196;28;20038;-76
2022/01/11 03:48:05;;;;;;;36.67;11.40;;;1.50;99.90;;;;;;5044261;28;20044;-75
2022/01/11 03:50:30;;;;;;;56.30;12.48;;;1.50;99.90;;;;;;5044081;28;20018;-76
2022/01/11 03:53:09;;;;;;;55.38;12.82;;;1.40;99.90;;;;;;5043643;28;20099;-76
2022/01/11 03:58:12;;;;;;;25.10;11.25;;;1.30;99.90;;;;;;5044028;28;20034;-77
2022/01/11 04:00:38;;;;;;;44.03;11.05;;;1.30;99.90;;;;;;5026248;28;20030;-75
2022/01/11 04:03:05;;;;;;;37.58;11.02;;;1.20;99.90;;;;;;5043898;28;20041;-75
2022/01/11 04:05:32;;;;;;;27.58;9.57;;;1.20;99.90;;;;;;5026020;28;20076;-75
2022/01/11 04:07:57;;;;;;;47.25;9.77;;;1.10;99.90;;;;;;5043878;28;20034;-75
2022/01/11 04:10:23;;;;;;;48.30;14.02;;;1.10;99.90;;;;;;5026796;28;20068;-77
2022/01/11 04:12:50;;;;;;;55.58;10.40;;;1.10;99.90;;;;;;5043785;28;20112;-76
2022/01/11 04:15:16;;;;;;;26.92;10.18;;;1.10;99.90;;;;;;5043722;28;20030;-77
2022/01/11 04:17:42;;;;;;;46.50;11.45;;;1.10;99.90;;;;;;5026327;28;20452;-78
2022/01/11 04:20:08;;;;;;;64.95;10.43;;;1.10;99.90;;;;;;5043202;28;20058;-77
2022/01/11 04:22:33;;;;;;;49.38;10.82;;;1.10;99.90;;;;;;5026280;28;20120;-76
2022/01/11 04:24:59;;;;;;;81.75;14.18;;;1.10;99.90;;;;;;5047394;28;20382;-76
2022/01/11 04:27:24;;;;;;;61.72;11.00;;;1.00;99.90;;;;;;5046972;28;20049;-76
2022/01/11 04:29:50;;;;;;;39.00;10.10;;;0.90;99.90;;;;;;5029218;28;20033;-76
2022/01/11 04:32:16;;;;;;;62.85;11.90;;;0.90;99.90;;;;;;5029504;28;20021;-75
2022/01/11 04:34:42;;;;;;;80.05;13.85;;;0.80;99.90;;;;;;5029177;28;20030;-76
2022/01/11 04:37:07;;;;;;;74.07;13.65;;;0.80;99.90;;;;;;5047192;28;20036;-77
2022/01/11 04:39:33;;;;;;;59.03;11.05;;;0.80;99.90;;;;;;5029571;28;20025;-78
2022/01/11 04:41:59;;;;;;;64.72;12.80;;;0.80;99.90;;;;;;5046534;28;20017;-76
2022/01/11 04:44:24;;;;;;;29.30;11.65;;;0.70;99.90;;;;;;5046333;28;20037;-78
2022/01/11 04:46:50;;;;;;;44.25;11.55;;;0.70;99.90;;;;;;5046807;28;20033;-77
2022/01/11 04:49:16;;;;;;;50.08;10.68;;;0.70;99.90;;;;;;5046580;28;20025;-77
2022/01/11 04:51:42;;;;;;;42.85;12.40;;;0.70;99.90;;;;;;5046932;28;20033;-77
2022/01/11 04:54:08;;;;;;;77.22;13.00;;;0.70;99.90;;;;;;5029042;28;20032;-77
2022/01/11 04:56:34;;;;;;;65.13;10.90;;;0.70;99.90;;;;;;5028992;28;20033;-78
2022/01/11 04:59:00;;;;;;;58.67;11.75;;;0.60;99.90;;;;;;5028198;28;20021;-76
2022/01/11 05:01:29;;;;;;;78.60;16.15;;;0.50;99.90;;;;;;5046316;28;20048;-76
2022/01/11 05:03:54;;;;;;;55.97;13.57;;;0.50;99.90;;;;;;5046331;28;20053;-77
2022/01/11 05:06:20;;;;;;;64.47;13.95;;;0.50;99.90;;;;;;5046597;28;20088;-77
2022/01/11 05:08:46;;;;;;;35.58;11.52;;;0.50;99.90;;;;;;5046356;28;20033;-77
2022/01/11 05:11:11;;;;;;;44.63;11.73;;;0.60;99.90;;;;;;5046706;28;20050;-78
2022/01/11 05:13:38;;;;;;;48.53;11.35;;;0.60;99.90;;;;;;5045366;28;20025;-78
2022/01/11 05:16:04;;;;;;;43.35;11.32;;;0.70;99.90;;;;;;5044986;28;20025;-78
2022/01/11 05:18:30;;;;;;;49.47;12.40;;;0.70;99.90;;;;;;5044791;28;20053;-78
2022/01/11 05:20:56;;;;;;;76.18;14.82;;;0.70;99.90;;;;;;5046099;28;20064;-78
2022/01/11 05:23:21;;;;;;;47.35;13.20;;;0.70;99.90;;;;;;5045963;28;20026;-79
2022/01/11 05:25:47;;;;;;;58.70;15.13;;;0.60;99.90;;;;;;5028073;28;20120;-78
2022/01/11 05:28:13;;;;;;;57.90;14.43;;;0.60;99.90;;;;;;5028547;28;20030;-78
2022/01/11 05:30:39;;;;;;;75.72;14.93;;;0.60;99.90;;;;;;5028071;28;20055;-78
2022/01/11 05:33:05;;;;;;;87.57;15.15;;;0.60;99.90;;;;;;5046024;28;20018;-79
2022/01/11 05:35:32;;;;;;;52.78;12.43;;;0.60;99.90;;;;;;5028025;28;20401;-78
2022/01/11 05:37:57;;;;;;;66.45;14.23;;;0.60;99.90;;;;;;5027815;28;20037;-76
2022/01/11 05:40:23;;;;;;;47.95;13.18;;;0.60;99.90;;;;;;5045830;28;20025;-77
2022/01/11 05:42:49;;;;;;;28.75;11.13;;;0.60;99.90;;;;;;5045963;28;20359;-76
2022/01/11 05:45:17;;;;;;;48.92;11.05;;;0.60;99.90;;;;;;5045542;28;20421;-76
2022/01/11 05:47:43;;;;;;;59.92;14.10;;;0.60;99.90;;;;;;5027753;28;20087;-76
2022/01/11 05:50:10;;;;;;;49.08;15.68;;;0.60;99.90;;;;;;5045881;28;20417;-77
2022/01/11 05:52:38;;;;;;;92.55;19.02;;;0.60;99.90;;;;;;5027174;28;20044;-77
2022/01/11 05:55:07;;;;;;;57.55;13.13;;;0.70;99.90;;;;;;5045980;28;20037;-76
2022/01/11 05:57:32;;;;;;;46.33;11.73;;;0.60;99.90;;;;;;5045590;28;20036;-76
2022/01/11 05:59:58;;;;;;;117.05;16.73;;;0.60;99.90;;;;;;5026252;28;20029;-76
2022/01/11 06:02:24;;;;;;;63.83;12.07;;;0.60;99.90;;;;;;5045692;28;20034;-75
2022/01/11 06:04:50;;;;;;;49.25;12.88;;;0.50;99.90;;;;;;5045317;28;20493;-76
2022/01/11 06:07:15;;;;;;;37.35;11.00;;;0.50;99.90;;;;;;5044899;28;20048;-76
2022/01/11 06:09:41;;;;;;;26.88;10.27;;;0.50;99.90;;;;;;5044353;28;20057;-77
2022/01/11 06:12:07;;;;;;;74.13;14.32;;;0.40;99.90;;;;;;5045918;28;20036;-77
2022/01/11 06:14:33;;;;;;;106.13;17.27;;;0.50;99.90;;;;;;5045555;28;20038;-77
2022/01/11 06:16:58;;;;;;;85.32;17.00;;;0.40;99.90;;;;;;5045533;28;20033;-77
2022/01/11 06:19:26;;;;;;;85.80;14.98;;;0.30;99.90;;;;;;5026602;28;20111;-77
2022/01/11 06:21:51;;;;;;;100.75;12.13;;;0.30;99.90;;;;;;5027202;28;20033;-77
2022/01/11 06:24:17;;;;;;;56.92;12.43;;;0.30;99.90;;;;;;5027288;28;20032;-77
2022/01/11 06:26:43;;;;;;;29.55;9.80;;;0.30;99.90;;;;;;5026395;28;20041;-77
2022/01/11 06:29:09;;;;;;;52.55;13.35;;;0.30;99.90;;;;;;5027457;28;20032;-77
2022/01/11 06:31:35;;;;;;;55.67;13.18;;;0.30;99.90;;;;;;5044431;28;20021;-76
2022/01/11 06:34:01;;;;;;;47.97;15.05;;;0.30;99.90;;;;;;5026854;28;20032;-77
2022/01/11 06:36:27;;;;;;;45.80;13.05;;;0.20;99.90;;;;;;5044727;28;20071;-77
2022/01/11 06:38:53;;;;;;;36.83;9.57;;;0.20;99.90;;;;;;5043666;28;20401;-78
2022/01/11 06:41:19;;;;;;;51.95;10.13;;;0.20;99.90;;;;;;5044727;28;20045;-76
2022/01/11 06:43:44;;;;;;;35.85;12.35;;;0.20;99.90;;;;;;5025470;28;20124;-81
2022/01/11 06:46:10;;;;;;;55.83;12.93;;;0.20;99.90;;;;;;5026572;28;20034;-79
2022/01/11 06:48:36;;;;;;;28.63;10.75;;;0.20;99.90;;;;;;5043513;28;20034;-80
2022/01/11 06:51:05;;;;;;;78.90;9.90;;;0.20;99.90;;;;;;5024783;28;20029;-80
2022/01/11 06:53:32;;;;;;;111.43;15.68;;;0.20;99.90;;;;;;5034233;28;20045;-80
2022/01/11 06:56:16;;;;;;;31.08;10.57;;;0.20;99.90;;;;;;5039540;28;20029;-81
2022/01/11 06:58:42;;;;;;;62.60;13.80;;;0.20;99.90;;;;;;5037343;28;20040;-79
2022/01/11 07:01:12;;;;;;;49.38;10.23;;;0.10;99.90;;;;;;5038957;28;20017;-79
2022/01/11 07:03:39;;;;;;;37.25;12.60;;;0.10;99.90;;;;;;5025862;28;20036;-79
2022/01/11 07:06:05;;;;;;;33.83;12.43;;;0.10;99.90;;;;;;5044795;28;20061;-78
2022/01/11 07:08:31;;;;;;;90.45;14.80;;;0.10;99.90;;;;;;5026597;28;20026;-79
2022/01/11 07:10:56;;;;;;;68.53;14.10;;;0.10;99.90;;;;;;5026659;28;20064;-78
2022/01/11 07:13:22;;;;;;;95.18;19.15;;;0.20;99.90;;;;;;5044275;28;20072;-79
2022/01/11 07:15:48;;;;;;;44.55;12.60;;;0.20;99.90;;;;;;5023193;28;20026;-80
2022/01/11 07:18:14;;;;;;;93.35;15.07;;;0.20;99.90;;;;;;5040923;28;20405;-80
2022/01/11 07:20:44;;;;;;;78.50;15.65;;;0.20;99.90;;;;;;5043066;28;20046;-79
2022/01/11 07:23:11;;;;;;;46.42;12.88;;;0.20;99.90;;;;;;5042548;28;20037;-78
2022/01/11 07:25:37;;;;;;;72.38;15.07;;;0.20;99.90;;;;;;5025922;28;20025;-79
2022/01/11 07:28:04;;;;;;;40.92;10.68;;;0.20;99.90;;;;;;5042965;28;20060;-78
2022/01/11 07:30:30;;;;;;;47.42;14.38;;;0.30;99.90;;;;;;5043716;28;20448;-78
2022/01/11 07:32:56;;;;;;;52.17;13.65;;;0.20;99.90;;;;;;5043616;28;20076;-78
2022/01/11 07:35:23;;;;;;;52.53;11.05;;;0.20;99.90;;;;;;5024719;28;20053;-78
2022/01/11 07:37:50;;;;;;;101.53;16.55;;;0.20;99.90;;;;;;5035096;28;20057;-81
2022/01/11 07:40:16;;;;;;;44.25;11.73;;;0.20;99.90;;;;;;5042601;28;20404;-76
2022/01/11 07:42:41;;;;;;;54.30;14.25;;;0.20;99.90;;;;;;5024875;28;20089;-78
2022/01/11 07:45:07;;;;;;;51.28;12.38;;;0.20;99.90;;;;;;5024340;28;20037;-76
2022/01/11 07:47:33;;;;;;;60.88;13.18;;;0.20;99.90;;;;;;5044239;28;20138;-79
2022/01/11 07:49:59;;;;;;;30.23;10.43;;;0.20;99.90;;;;;;5025083;28;20485;-78
2022/01/11 07:52:25;;;;;;;47.97;15.30;;;0.20;99.90;;;;;;5026020;28;20057;-78
2022/01/11 07:54:52;;;;;;;76.72;15.82;;;0.30;99.90;;;;;;5026108;28;20053;-77
2022/01/11 07:57:18;;;;;;;67.75;15.00;;;0.20;99.90;;;;;;5025508;28;20385;-78
2022/01/11 07:59:44;;;;;;;82.90;16.60;;;0.20;99.90;;;;;;5028808;28;20121;-79
2022/01/11 08:02:10;;;;;;;64.13;13.27;;;0.30;99.90;;;;;;5029005;28;20033;-78
2022/01/11 08:04:36;;;;;;;46.80;12.63;;;0.30;99.90;;;;;;5029167;28;20037;-78
2022/01/11 08:07:03;;;;;;;39.22;10.77;;;0.30;99.90;;;;;;5046848;28;20048;-79
2022/01/11 08:09:29;;;;;;;115.30;17.25;;;0.40;99.90;;;;;;5029589;28;20034;-78
2022/01/11 08:11:56;;;;;;;41.30;13.27;;;0.30;99.90;;;;;;5047012;28;20074;-78
2022/01/11 08:14:22;;;;;;;73.63;14.75;;;0.40;99.90;;;;;;5029049;28;20113;-77
2022/01/11 08:16:48;;;;;;;73.95;13.27;;;0.40;99.90;;;;;;5048058;28;20033;-78
2022/01/11 08:19:14;;;;;;;120.63;12.32;;;0.40;99.90;;;;;;5047437;28;20664;-78
2022/01/11 08:21:40;;;;;;;42.92;12.45;;;0.40;99.90;;;;;;5029752;28;20079;-78
2022/01/11 08:24:06;;;;;;;84.28;13.27;;;0.40;99.90;;;;;;5047491;28;20022;-78
2022/01/11 08:26:32;;;;;;;58.15;13.48;;;0.40;99.90;;;;;;5046024;28;20175;-78
2022/01/11 08:28:58;;;;;;;28.08;11.02;;;0.40;99.90;;;;;;5029106;28;20053;-77
2022/01/11 08:31:23;;;;;;;51.45;11.05;;;0.40;99.90;;;;;;5046173;28;20021;-78
2022/01/11 08:33:49;;;;;;;51.47;12.25;;;0.40;99.90;;;;;;5044106;28;20021;-79
2022/01/11 08:36:15;;;;;;;97.50;14.50;;;0.40;99.90;;;;;;5028974;28;20049;-78
2022/01/11 08:38:41;;;;;;;110.50;17.70;;;0.40;99.90;;;;;;5046544;28;20022;-77
2022/01/11 08:41:08;;;;;;;61.55;14.63;;;0.40;99.90;;;;;;5028967;28;20021;-78
2022/01/11 08:43:34;;;;;;;82.60;12.38;;;0.40;99.90;;;;;;5044883;28;20036;-78
2022/01/11 08:46:04;;;;;;;100.28;17.30;;;0.40;99.90;;;;;;5043319;28;20025;-76
2022/01/11 08:48:31;;;;;;;57.03;11.57;;;0.40;99.90;;;;;;5045381;28;20044;-77
2022/01/11 08:50:57;;;;;;;31.42;12.48;;;0.40;99.90;;;;;;5028571;28;20075;-76
2022/01/11 08:53:28;;;;;;;96.55;17.40;;;0.50;99.90;;;;;;5026994;28;20025;-78
2022/01/11 08:55:55;;;;;;;69.55;15.25;;;0.50;99.90;;;;;;5026057;28;20063;-78
2022/01/11 08:58:22;;;;;;;68.93;14.43;;;0.60;99.90;;;;;;5045757;28;20029;-78
2022/01/11 09:00:49;;;;;;;51.13;12.73;;;0.60;99.90;;;;;;5027503;28;20022;-83
2022/01/11 09:03:15;;;;;;;58.55;10.35;;;0.50;99.90;;;;;;5027254;28;20053;-80
2022/01/11 09:05:41;;;;;;;19.48;10.32;;;0.60;99.90;;;;;;5027309;28;20029;-78
2022/01/11 09:08:07;;;;;;;65.10;13.93;;;0.60;99.90;;;;;;5045312;28;20041;-79
2022/01/11 09:10:33;;;;;;;60.40;10.70;;;0.60;99.90;;;;;;5045672;28;20030;-79
2022/01/11 09:12:59;;;;;;;50.88;12.75;;;0.60;99.90;;;;;;5043337;28;20040;-78
2022/01/11 09:15:24;;;;;;;43.45;11.93;;;0.70;99.90;;;;;;5025587;28;20029;-79
2022/01/11 09:17:50;;;;;;;52.55;10.65;;;0.70;99.90;;;;;;5044425;28;20031;-79
2022/01/11 09:20:17;;;;;;;66.22;12.98;;;0.70;99.90;;;;;;5027300;28;20489;-78
2022/01/11 09:22:44;;;;;;;57.88;13.70;;;0.60;99.90;;;;;;5045235;28;20112;-81
2022/01/11 09:25:11;;;;;;;51.47;10.38;;;0.60;99.90;;;;;;5027169;28;20503;-78
2022/01/11 09:27:38;;;;;;;61.97;12.10;;;0.60;99.90;;;;;;5027593;28;20105;-79
2022/01/11 09:30:08;;;;;;;53.00;12.13;;;0.60;99.90;;;;;;5045017;28;20030;-78
2022/01/11 09:32:36;;;;;;;23.58;9.18;;;0.60;99.90;;;;;;5045134;28;20474;-79
2022/01/11 09:35:04;;;;;;;34.65;10.32;;;0.70;99.90;;;;;;5027270;28;20064;-81
2022/01/11 09:37:30;;;;;;;31.52;8.57;;;0.60;99.90;;;;;;5025851;28;20026;-79
2022/01/11 09:39:56;;;;;;;48.45;10.63;;;0.70;99.90;;;;;;5045900;28;20042;-79
2022/01/11 09:42:23;;;;;;;64.65;12.30;;;0.70;99.90;;;;;;5045667;28;20077;-79
2022/01/11 09:44:49;;;;;;;77.55;14.85;;;0.70;99.90;;;;;;5045535;28;20032;-80
2022/01/11 09:47:15;;;;;;;36.38;9.15;;;0.70;99.90;;;;;;5025842;28;20037;-79
2022/01/11 09:49:42;;;;;;;39.22;12.20;;;0.70;99.90;;;;;;5041829;28;20030;-78
2022/01/11 09:52:09;;;;;;;84.57;12.43;;;0.80;99.90;;;;;;5046731;28;20025;-77
2022/01/11 09:54:42;;;;;;;83.40;13.40;;;0.80;99.90;;;;;;5027991;28;20097;-78
2022/01/11 09:57:09;;;;;;;39.37;12.03;;;0.90;99.90;;;;;;5023503;28;20053;-78
2022/01/11 09:59:36;;;;;;;59.20;13.52;;;0.90;99.90;;;;;;5037879;28;20026;-79
2022/01/11 10:02:03;;;;;;;60.28;12.05;;;0.90;99.90;;;;;;5040346;28;20033;-79
2022/01/11 10:04:32;;;;;;;64.43;12.48;;;1.00;99.90;;;;;;5045108;28;20036;-78
2022/01/11 10:07:05;;;;;;;51.90;12.00;;;1.00;99.90;;;;;;5026989;28;20045;-78
2022/01/11 10:09:40;;;;;;;31.63;12.10;;;1.00;99.90;;;;;;5044871;28;20094;-78
2022/01/11 10:12:12;;;;;;;110.28;13.10;;;1.10;99.90;;;;;;5027279;28;20445;-79
2022/01/11 10:14:38;;;;;;;58.35;11.13;;;1.00;99.90;;;;;;5044498;28;20089;-79
2022/01/11 10:17:18;;;;;;;79.45;14.00;;;1.00;99.90;;;;;;5043257;28;20032;-78
2022/01/11 10:19:47;;;;;;;67.03;11.77;;;1.10;99.90;;;;;;5011889;28;20057;-79
2022/01/11 10:22:19;;;;;;;75.75;13.32;;;1.10;99.90;;;;;;5027099;28;20032;-79
2022/01/11 10:24:51;;;;;;;43.70;11.77;;;1.20;99.90;;;;;;5027348;28;20032;-79
2022/01/11 10:27:20;;;;;;;22.67;10.63;;;1.10;99.90;;;;;;5036222;28;20049;-80
2022/01/11 10:29:51;;;;;;;56.78;13.82;;;1.10;99.90;;;;;;5044269;28;20040;-79
2022/01/11 10:32:26;;;;;;;40.78;12.13;;;1.10;99.90;;;;;;5044409;28;20025;-78
2022/01/11 10:35:02;;;;;;;32.20;9.82;;;1.20;99.90;;;;;;5026798;28;20025;-78
2022/01/11 10:37:38;;;;;;;32.28;10.75;;;1.20;99.90;;;;;;5026678;28;20029;-77
2022/01/11 10:40:17;;;;;;;24.25;9.30;;;1.20;99.90;;;;;;5025696;28;20029;-78
2022/01/11 10:42:56;;;;;;;37.75;12.40;;;1.20;99.90;;;;;;5043961;28;20026;-77
2022/01/11 10:45:25;;;;;;;22.80;8.23;;;1.20;99.90;;;;;;5025864;28;20895;-78
2022/01/11 10:48:00;;;;;;;61.17;13.30;;;1.20;99.90;;;;;;5043442;28;20037;-78
2022/01/11 10:50:29;;;;;;;46.13;12.68;;;1.20;99.90;;;;;;5043993;28;20033;-79
2022/01/11 10:53:00;;;;;;;32.22;11.00;;;1.30;99.90;;;;;;5040974;28;20056;-78
2022/01/11 10:55:29;;;;;;;52.55;13.05;;;1.30;99.90;;;;;;5024828;28;20490;-77
2022/01/11 10:58:03;;;;;;;21.17;9.35;;;1.30;99.90;;;;;;5025227;28;20030;-82
2022/01/11 11:00:56;;;;;;;31.73;10.05;;;1.40;99.90;;;;;;5043855;28;20120;-81
2022/01/11 11:03:30;;;;;;;22.98;9.43;;;1.40;99.90;;;;;;5041522;28;20042;-80
2022/01/11 11:05:58;;;;;;;78.00;13.40;;;1.50;99.90;;;;;;5025239;28;20045;-79
2022/01/11 11:08:27;;;;;;;41.45;13.38;;;1.50;99.90;;;;;;5043394;28;20033;-77
2022/01/11 11:10:55;;;;;;;44.67;10.82;;;1.60;99.90;;;;;;5043437;28;20030;-78
2022/01/11 11:13:23;;;;;;;26.63;10.30;;;1.50;99.90;;;;;;5043145;28;20032;-78
2022/01/11 11:15:51;;;;;;;33.28;10.65;;;1.50;99.90;;;;;;5025515;28;20478;-79
2022/01/11 11:18:28;;;;;;;32.17;10.25;;;1.50;99.90;;;;;;5022962;28;20022;-78
2022/01/11 11:20:55;;;;;;;47.17;11.63;;;1.50;99.90;;;;;;5040968;28;20042;-77
2022/01/11 11:23:21;;;;;;;53.42;11.13;;;1.40;99.90;;;;;;5018231;28;20029;-76
2022/01/11 11:25:47;;;;;;;30.75;9.30;;;1.50;99.90;;;;;;5033658;28;20081;-77
2022/01/11 11:28:14;;;;;;;25.05;8.88;;;1.40;99.90;;;;;;5025756;28;20085;-77
2022/01/11 11:30:40;;;;;;;37.60;11.40;;;1.50;99.90;;;;;;5025889;28;20025;-75
2022/01/11 11:33:11;;;;;;;24.13;9.82;;;1.50;99.90;;;;;;5027505;28;20096;-77
2022/01/11 11:35:38;;;;;;;23.45;9.73;;;1.60;99.90;;;;;;5047386;28;20106;-76
2022/01/11 11:38:08;;;;;;;34.60;10.23;;;1.80;99.90;;;;;;5046118;28;20033;-75
2022/01/11 11:40:35;;;;;;;20.45;8.77;;;2.00;99.90;;;;;;5046131;28;20072;-74
2022/01/11 11:43:03;;;;;;;21.35;9.52;;;2.30;99.90;;;;;;5028685;28;20021;-74
2022/01/11 11:45:39;;;;;;;20.73;8.30;;;2.80;99.90;;;;;;5044340;28;20057;-75
2022/01/11 11:48:09;;;;;;;17.83;8.32;;;3.50;99.90;;;;;;5028541;28;20702;-75
2022/01/11 11:50:51;;;;;;;21.42;8.68;;;4.10;99.90;;;;;;5029014;28;20029;-75
2022/01/11 11:53:36;;;;;;;16.98;8.90;;;4.50;99.90;;;;;;5025866;28;20029;-74
2022/01/11 11:56:18;;;;;;;16.67;7.93;;;5.00;99.90;;;;;;5044967;28;20025;-75
2022/01/11 11:58:50;;;;;;;26.02;8.52;;;5.70;99.90;;;;;;5046894;28;20041;-75
2022/01/11 12:01:42;;;;;;;17.70;7.63;;;6.10;99.90;;;;;;5049075;28;20053;-76
2022/01/11 12:04:36;;;;;;;22.00;8.13;;;6.20;99.90;;;;;;5038897;28;20113;-77
2022/01/11 12:07:32;;;;;;;18.23;7.65;;;5.80;99.90;;;;;;5033965;28;20043;-76
2022/01/11 12:09:59;;;;;;;19.27;8.13;;;5.40;99.90;;;;;;5028740;28;20041;-77
2022/01/11 12:12:42;;;;;;;11.68;6.32;;;5.20;99.90;;;;;;5044516;28;20021;-75
2022/01/11 12:15:23;;;;;;;15.52;6.60;;;5.20;99.90;;;;;;5045934;28;20051;-76
2022/01/11 12:18:08;;;;;;;17.52;7.80;;;5.20;99.90;;;;;;5046172;28;20064;-77
2022/01/11 12:20:42;;;;;;;19.95;7.03;;;5.30;99.90;;;;;;5028228;28;20042;-78
2022/01/11 12:23:10;;;;;;;21.75;6.88;;;5.40;99.90;;;;;;5045208;28;20036;-77
2022/01/11 12:25:43;;;;;;;16.52;6.85;;;5.90;99.90;;;;;;5028962;28;20053;-77
2022/01/11 12:28:17;;;;;;;18.55;7.30;;;6.50;99.90;;;;;;5046352;28;20041;-75
2022/01/11 12:30:43;;;;;;;;;;;6.90;99.90;;;;;;5028451;28;20032;-76
2022/01/11 12:33:18;;;;;;;15.77;6.32;;;7.30;99.90;;;;;;5045132;28;19928;-77
2022/01/11 12:36:03;;;;;;;16.95;8.05;;;7.50;99.90;;;;;;5027418;28;20034;-77
2022/01/11 12:38:37;;;;;;;16.13;8.02;;;7.30;99.90;;;;;;5045491;28;20088;-76
2022/01/11 12:41:33;;;;;;;18.23;7.32;;;7.10;99.90;;;;;;5046105;28;20022;-78
2022/01/11 12:47:10;;;;;;;13.25;6.53;;;6.90;99.90;;;;;;5043772;28;20179;-77
2022/01/11 12:49:43;;;;;;;14.18;5.72;;;6.80;99.90;;;;;;5041678;28;20026;-77
2022/01/11 12:52:17;;;;;;;13.90;6.15;;;6.70;99.90;;;;;;5045750;28;20036;-78